Thunder radar more information blitzortung!


Radar de pluja more information rain snow radar


Visita la nostra xarxa de llocs de meteo:

Template documentation
and downloads

And another site



No particular awareness of the weather is required.    There are no Weather-warnings

Pagina Historial Weather Underground text

Diari Resum Marc 13, 2016 Unitats:  Mètric    Imperial   Tant
« Previous Dia
SegĂźent Dia »
Diari Setmana Mensual Anual Personalitzada
  Maxima: Minima: Media:
Temperatura: -17.8 °C -15.2 °C -11.9 °C
Punt de rosada: -17.8 °C -18.3 °C -17.1 °C
Humitat: Humidity % 35 % 53 %
Wind Speed: 0 km/h 0 km/h 11.6 km/h
RĂ fegues de vent: 0 km/h - -
Vent:- - ESE
Pression baro: 0 hPa 34496.6 hPa -
Precipitacions: 0 mm    
Historical Graphs
 
 
Dades de taula per Marc 13, 2016
Temps Temperatura Punt de rosada Pression baro Vent Wind Speed RĂ fegues de vent Humitat Rainfall Rate (Hourly)
-17.8 °C -17.8 °C 0 hPa Calm     Humidity % 0 mm
13:42 -9.2 °C -16.5 °C 34533.8 hPa NW 11.9 km/h 11.9 km/h 41 % 0 mm
13:47 -9.2 °C -16.6 °C 34533.8 hPa SW 9 km/h 9 km/h 41 % 0 mm
13:52 -9.3 °C -16.6 °C 34533.8 hPa SW 9 km/h 9 km/h 41 % 0 mm
14:02 -9.1 °C -16.8 °C 34533.8 hPa SW 15 km/h 15 km/h 39 % 0 mm
14:07 -8.9 °C -16.5 °C 34533.8 hPa WNW 4.2 km/h 4.2 km/h 40 % 0 mm
14:12 -9 °C -16.9 °C 34533.8 hPa WSW 20.9 km/h 20.9 km/h 38 % 0 mm
14:17 -9.1 °C -17.1 °C 34533.8 hPa NNE 9 km/h 9 km/h 38 % 0 mm
14:22 -8.9 °C -16.8 °C 34533.8 hPa SSW 12.7 km/h 12.7 km/h 38 % 0 mm
14:27 -8.8 °C -16.9 °C 34533.8 hPa SW 11.9 km/h 11.9 km/h 37 % 0 mm
14:32 -8.7 °C -16.9 °C 34533.8 hPa WSW 12.2 km/h 12.2 km/h 37 % 0 mm
14:37 -9 °C -17.4 °C 34533.8 hPa WSW 5.6 km/h 5.6 km/h 36 % 0 mm
14:42 -9 °C -17.6 °C 34533.8 hPa WSW 15 km/h 15 km/h 35 % 0 mm
14:47 -8.8 °C -17.2 °C 34533.8 hPa SSW 6 km/h 6 km/h 36 % 0 mm
14:52 -8.7 °C -17.1 °C 34533.8 hPa South 17.9 km/h 17.9 km/h 36 % 0 mm
14:57 -8.7 °C -17.3 °C 34533.8 hPa ESE 15 km/h 15 km/h 35 % 0 mm
15:02 -8.8 °C -17.4 °C 34533.8 hPa East 9 km/h 9 km/h 35 % 0 mm
15:07 -9.3 °C -17.6 °C 34533.8 hPa ENE 19.2 km/h 19.2 km/h 36 % 0 mm
15:12 -9.6 °C -17.9 °C 34533.8 hPa ESE 27.7 km/h 27.7 km/h 36 % 0 mm
15:17 -9.7 °C -17.7 °C 34533.8 hPa East 29.8 km/h 29.8 km/h 37 % 0 mm
15:22 -9.9 °C -18 °C 34533.8 hPa ESE 15 km/h 15 km/h 37 % 0 mm
15:27 -10 °C -17.8 °C 34533.8 hPa SE 20.9 km/h 20.9 km/h 38 % 0 mm
15:32 -10.2 °C -18 °C 34533.8 hPa ENE 26.9 km/h 26.9 km/h 38 % 0 mm
15:37 -10.3 °C -17.9 °C 34533.8 hPa ESE 26.9 km/h 26.9 km/h 39 % 0 mm
15:42 -10.1 °C -17.7 °C 34533.8 hPa ESE 15 km/h 15 km/h 39 % 0 mm
15:47 -10.1 °C -17.5 °C 34533.8 hPa SE 20.9 km/h 20.9 km/h 40 % 0 mm
15:52 -10.2 °C -17.7 °C 34533.8 hPa ESE 23.8 km/h 23.8 km/h 40 % 0 mm
15:57 -10.7 °C -17.9 °C 34533.8 hPa ESE 20.3 km/h 20.3 km/h 41 % 0 mm
16:02 -10.7 °C -17.9 °C 34533.8 hPa ESE 26.9 km/h 26.9 km/h 41 % 0 mm
16:07 -10.9 °C -17.9 °C 34533.8 hPa ESE 29.8 km/h 29.8 km/h 42 % 0 mm
16:12 -10.9 °C -17.9 °C 34533.8 hPa ENE 20.9 km/h 20.9 km/h 42 % 0 mm
16:22 -11.1 °C -17.5 °C 34533.8 hPa ESE 26.9 km/h 26.9 km/h 45 % 0 mm
16:27 -11.1 °C -17.6 °C 34533.8 hPa SW 26.9 km/h 26.9 km/h 45 % 0 mm
16:32 -11.2 °C -17.4 °C 34533.8 hPa ESE 20.9 km/h 20.9 km/h 46 % 0 mm
16:37 -11.3 °C -17.6 °C 34533.8 hPa ESE 26.9 km/h 26.9 km/h 46 % 0 mm
16:42 -11.3 °C -17.4 °C 34496.6 hPa NNE 32.8 km/h 32.8 km/h 47 % 0 mm
16:47 -11.2 °C -17.3 °C 34496.6 hPa ESE 23.8 km/h 23.8 km/h 47 % 0 mm
16:52 -11.2 °C -17.2 °C 34496.6 hPa ESE 29.8 km/h 29.8 km/h 48 % 0 mm
16:57 -11 °C -16.9 °C 34496.6 hPa East 23.8 km/h 23.8 km/h 48 % 0 mm
17:02 -11 °C -16.9 °C 34496.6 hPa NNW 25.9 km/h 25.9 km/h 48 % 0 mm
17:07 -11.1 °C -17.1 °C 34496.6 hPa ESE 22 km/h 22 km/h 48 % 0 mm
17:12 -11.2 °C -17 °C 34533.8 hPa NNE 22 km/h 22 km/h 49 % 0 mm
17:17 -11.2 °C -17 °C 34533.8 hPa ESE 15 km/h 15 km/h 49 % 0 mm
17:22 -11.2 °C -16.8 °C 34533.8 hPa ESE 20.9 km/h 20.9 km/h 50 % 0 mm
17:27 -11.1 °C -16.7 °C 34533.8 hPa South 11.9 km/h 11.9 km/h 50 % 0 mm
17:32 -11.2 °C -16.8 °C 34533.8 hPa ESE 15 km/h 15 km/h 50 % 0 mm
17:37 -11.4 °C -16.8 °C 34533.8 hPa ESE 27.7 km/h 27.7 km/h 51 % 0 mm
17:42 -11.4 °C -16.9 °C 34496.6 hPa ESE 17.9 km/h 17.9 km/h 51 % 0 mm
17:47 -11.6 °C -17 °C 34496.6 hPa ESE 20.9 km/h 20.9 km/h 51 % 0 mm
17:52 -11.6 °C -17 °C 34496.6 hPa ENE 15 km/h 15 km/h 51 % 0 mm
17:57 -11.5 °C -16.8 °C 34533.8 hPa SSW 15 km/h 15 km/h 52 % 0 mm
18:02 -11.6 °C -16.8 °C 34533.8 hPa ENE 17.9 km/h 17.9 km/h 52 % 0 mm
18:07 -11.6 °C -16.9 °C 34533.8 hPa SSW 20.9 km/h 20.9 km/h 52 % 0 mm
18:12 -11.7 °C -16.9 °C 34567.7 hPa ESE 20.9 km/h 20.9 km/h 52 % 0 mm
18:17 -11.7 °C -16.8 °C 34567.7 hPa ENE 17.9 km/h 17.9 km/h 53 % 0 mm
18:22 -11.7 °C -16.8 °C 34567.7 hPa ESE 15 km/h 15 km/h 53 % 0 mm
18:27 -11.8 °C -16.9 °C 34567.7 hPa ESE 14.5 km/h 14.5 km/h 53 % 0 mm
18:32 -11.8 °C -16.9 °C 34567.7 hPa East 17.9 km/h 17.9 km/h 53 % 0 mm
18:37 -11.9 °C -17 °C 34567.7 hPa SE 20.9 km/h 20.9 km/h 53 % 0 mm
18:42 -11.9 °C -16.8 °C 34567.7 hPa ESE 9 km/h 9 km/h 54 % 0 mm
18:47 -11.9 °C -16.9 °C 34567.7 hPa ESE 20.3 km/h 20.3 km/h 54 % 0 mm
18:52 -12 °C -16.9 °C 34567.7 hPa East 15 km/h 15 km/h 54 % 0 mm
18:57 -12.1 °C -16.8 °C 34601.5 hPa SE 15 km/h 15 km/h 55 % 0 mm
19:02 -12.1 °C -16.8 °C 34601.5 hPa East 22 km/h 22 km/h 55 % 0 mm
19:07 -12.1 °C -16.8 °C 34601.5 hPa ENE 14.5 km/h 14.5 km/h 56 % 0 mm
19:12 -12.2 °C -16.8 °C 34567.7 hPa ENE 15 km/h 15 km/h 56 % 0 mm
19:17 -12.2 °C -16.9 °C 34567.7 hPa East 15 km/h 15 km/h 56 % 0 mm
19:27 -12.2 °C -16.7 °C 34567.7 hPa ENE 17.9 km/h 17.9 km/h 57 % 0 mm
19:32 -12.3 °C -16.8 °C 34567.7 hPa East 15 km/h 15 km/h 57 % 0 mm
19:42 -12.3 °C -16.7 °C 34567.7 hPa ENE 11.9 km/h 11.9 km/h 58 % 0 mm
19:47 -12.3 °C -16.7 °C 34567.7 hPa ESE 15 km/h 15 km/h 58 % 0 mm
19:52 -12.4 °C -16.8 °C 34567.7 hPa East 15 km/h 15 km/h 58 % 0 mm
19:57 -12.4 °C -16.8 °C 34567.7 hPa East 11.9 km/h 11.9 km/h 58 % 0 mm
20:02 -12.4 °C -16.6 °C 34567.7 hPa ESE 9 km/h 9 km/h 59 % 0 mm
20:07 -12.4 °C -16.7 °C 34567.7 hPa ESE 11.9 km/h 11.9 km/h 59 % 0 mm
20:12 -12.4 °C -16.7 °C 34601.5 hPa East 15 km/h 15 km/h 59 % 0 mm
20:17 -12.4 °C -16.7 °C 34601.5 hPa East 9 km/h 9 km/h 59 % 0 mm
20:22 -12.4 °C -16.7 °C 34601.5 hPa NNE 9 km/h 9 km/h 59 % 0 mm
20:27 -12.4 °C -16.7 °C 34601.5 hPa East 6.3 km/h 6.3 km/h 59 % 0 mm
20:32 -12.4 °C -16.7 °C 34601.5 hPa ESE 8.5 km/h 8.5 km/h 59 % 0 mm
20:37 -12.5 °C -16.6 °C 34601.5 hPa ENE 6 km/h 6 km/h 60 % 0 mm
20:42 -12.5 °C -16.6 °C 34601.5 hPa ENE 6 km/h   60 % 0 mm
20:47 -12.6 °C -16.7 °C 34601.5 hPa ENE 6 km/h 6 km/h 60 % 0 mm
20:52 -12.6 °C -16.7 °C 34601.5 hPa ENE 6 km/h 6 km/h 60 % 0 mm
20:57 -12.6 °C -16.7 °C 34601.5 hPa ENE 3.1 km/h 3.1 km/h 60 % 0 mm
21:02 -12.6 °C -16.7 °C 34601.5 hPa ENE 3.1 km/h 3.1 km/h 60 % 0 mm
21:12 -12.6 °C -16.7 °C 34601.5 hPa NNE 3.1 km/h   60 % 0 mm
21:17 -12.6 °C -16.7 °C 34601.5 hPa ENE 3.1 km/h   60 % 0 mm
21:22 -12.6 °C -16.7 °C 34601.5 hPa NE 6 km/h 6 km/h 60 % 0 mm
21:27 -12.6 °C -16.7 °C 34601.5 hPa NE 5.1 km/h 5.1 km/h 60 % 0 mm
21:30 -14.6 °C -17.6 °C 34533.8 hPa ENE 2.6 km/h 5.1 km/h 68 % 0 mm
21:32 -12.6 °C -16.7 °C 34601.5 hPa ENE 3.1 km/h 3.7 km/h 60 % 0 mm
21:37 -12.6 °C -16.7 °C 34601.5 hPa Calm     60 % 0 mm
21:40 -14.7 °C -17.7 °C 34533.8 hPa East 2.6 km/h 7.7 km/h 68 % 0 mm
21:42 -12.6 °C -16.7 °C 34601.5 hPa ENE 2.3 km/h   60 % 0 mm
21:47 -12.6 °C -16.7 °C 34601.5 hPa ENE 3.1 km/h 3.1 km/h 60 % 0 mm
21:50 -14.8 °C -17.8 °C 34533.8 hPa Calm   5.1 km/h 68 % 0 mm
21:52 -12.6 °C -16.7 °C 34601.5 hPa ENE 3.1 km/h   60 % 0 mm
21:57 -12.6 °C -16.7 °C 34601.5 hPa NE 3.1 km/h 3.1 km/h 60 % 0 mm
22:00 -14.9 °C -18.1 °C 34533.8 hPa East 2.6 km/h 7.7 km/h 67 % 0 mm
22:02 -12.6 °C -16.7 °C 34601.5 hPa Calm     60 % 0 mm
22:07 -12.6 °C -16.7 °C 34601.5 hPa Calm     60 % 0 mm
22:10 -15.2 °C -18.3 °C 34533.8 hPa SSW 5.1 km/h 5.1 km/h 67 % 0 mm
22:12 -12.6 °C -16.7 °C 34601.5 hPa Calm     60 % 0 mm
22:17 -12.6 °C -16.7 °C 34601.5 hPa Calm     60 % 0 mm
22:20 -15.2 °C -18.1 °C 34533.8 hPa Calm   5.1 km/h 69 % 0 mm
22:22 -12.6 °C -16.7 °C 34601.5 hPa ENE 4.2 km/h 4.2 km/h 60 % 0 mm
22:27 -12.6 °C -16.7 °C 34601.5 hPa NE 3.7 km/h 3.7 km/h 60 % 0 mm
22:30 -15.2 °C -17.9 °C 34533.8 hPa SW 2.6 km/h 2.6 km/h 71 % 0 mm
22:32 -12.6 °C -16.7 °C 34601.5 hPa NE 3.1 km/h   60 % 0 mm
22:37 -12.6 °C -16.7 °C 34601.5 hPa Calm     60 % 0 mm
22:42 -12.7 °C -16.8 °C 34601.5 hPa Calm     60 % 0 mm
22:47 -12.7 °C -16.8 °C 34601.5 hPa SW 6 km/h 6 km/h 60 % 0 mm
22:50 -15 °C -17.7 °C 34533.8 hPa NNE 2.6 km/h 5.1 km/h 71 % 0 mm
22:52 -12.9 °C -17 °C 34601.5 hPa SW 6 km/h 6 km/h 60 % 0 mm
22:57 -12.9 °C -17 °C 34601.5 hPa WSW 6 km/h 6 km/h 60 % 0 mm
23:00 -14.9 °C -17.6 °C 34533.8 hPa Calm   5.1 km/h 71 % 0 mm
23:02 -12.9 °C -16.9 °C 34601.5 hPa Calm     61 % 0 mm
23:07 -13 °C -16.9 °C 34601.5 hPa Calm     61 % 0 mm
23:10 -14.9 °C -17.7 °C 34533.8 hPa Calm   5.1 km/h 70 % 0 mm
23:12 -13.1 °C -17 °C 34601.5 hPa Calm     61 % 0 mm
23:17 -13.1 °C -17 °C 34601.5 hPa Calm     61 % 0 mm
23:20 -15 °C -17.8 °C 34533.8 hPa Calm   5.1 km/h 70 % 0 mm
23:22 -13.1 °C -17 °C 34601.5 hPa Calm     61 % 0 mm
23:27 -13.1 °C -17 °C 34601.5 hPa Calm     61 % 0 mm
23:30 -15.1 °C -17.8 °C 34533.8 hPa NE 2.6 km/h 5.1 km/h 70 % 0 mm
23:40 -15.1 °C -17.9 °C 34533.8 hPa NNE 2.6 km/h 5.1 km/h 70 % 0 mm
23:50 -15.2 °C -18.1 °C 34533.8 hPa NE 2.6 km/h 5.1 km/h 69 % 0 mm
Meteo Sesrovires
Elogis d' Weather Underground - 2 mb

Guio original per  Jim McMurry - jmcmurry@mwt.net Adaptat per a la plantilla per  Wim van der Kuil - Leuven-Template.eu

Trobareu la nostra informacio del temps tambe a:

Weather Underground

AWEKAS